createdAt,value
2017-01-04T00:00:19.724Z,94.27
2017-01-04T00:01:00.222Z,93.32
2017-01-04T00:01:40.694Z,93.61
2017-01-04T00:02:21.174Z,93.51
2017-01-04T00:03:01.660Z,93.41
2017-01-04T00:03:42.189Z,93.32
2017-01-04T00:04:22.666Z,93.23
2017-01-04T00:05:03.135Z,93.23
2017-01-04T00:05:43.614Z,92.66
2017-01-04T00:06:24.092Z,91.99
2017-01-04T00:07:04.576Z,91.61
2017-01-04T00:07:45.065Z,91.52
2017-01-04T00:08:25.535Z,91.24
2017-01-04T00:09:06.039Z,91.71
2017-01-04T00:09:46.537Z,91.61
2017-01-04T00:10:26.996Z,90.67
2017-01-04T00:11:07.477Z,90.48
2017-01-04T00:11:47.941Z,89.72
2017-01-04T00:12:28.420Z,89.06
2017-01-04T00:13:08.941Z,88.01
2017-01-04T00:13:49.429Z,88.96
2017-01-04T00:14:29.917Z,88.87
2017-01-04T00:15:10.400Z,88.87
2017-01-04T00:15:50.876Z,89.15
2017-01-04T00:16:31.370Z,89.62
2017-01-04T00:17:11.856Z,89.72
2017-01-04T00:17:52.339Z,90.15
2017-01-04T00:18:32.811Z,90.53
2017-01-04T00:19:13.299Z,90.72
2017-01-04T00:19:53.771Z,91
2017-01-04T00:20:34.259Z,91.19
2017-01-04T00:21:14.715Z,91.95
2017-01-04T00:21:55.226Z,92.52
2017-01-04T00:22:35.704Z,93.18
2017-01-04T00:23:16.204Z,93.46
2017-01-04T00:23:56.669Z,93.94
2017-01-04T00:24:37.144Z,93.65
2017-01-04T00:25:17.657Z,93.84
2017-01-04T00:25:58.122Z,93.65
2017-01-04T00:26:38.594Z,93.84
2017-01-04T00:27:19.080Z,93.56
2017-01-04T00:27:59.643Z,93.84
2017-01-04T00:28:40.137Z,94.42
2017-01-04T00:29:20.641Z,94.42
2017-01-04T00:30:01.143Z,94.51
2017-01-04T00:30:41.605Z,94.79
2017-01-04T00:31:22.111Z,95.45
2017-01-04T00:32:02.604Z,95.07
2017-01-04T00:32:43.092Z,95.93
2017-01-04T00:33:23.566Z,95.74
2017-01-04T00:34:04.051Z,95.36
2017-01-04T00:34:44.534Z,96.12
2017-01-04T00:35:25.008Z,96.41
2017-01-04T00:36:05.491Z,96.41
2017-01-04T00:36:45.986Z,96.78
2017-01-04T00:37:26.465Z,96.41
2017-01-04T00:38:06.935Z,96.22
2017-01-04T00:38:47.428Z,95.84
2017-01-04T00:39:27.945Z,95.26
2017-01-04T00:40:08.416Z,95.45
2017-01-04T00:40:48.908Z,94.98
2017-01-04T00:41:29.374Z,94.79
2017-01-04T00:42:09.870Z,94.13
2017-01-04T00:42:50.339Z,93.56
2017-01-04T00:43:30.821Z,93.56
2017-01-04T00:44:11.318Z,92.33
2017-01-04T00:44:51.815Z,92.71
2017-01-04T00:45:32.303Z,92.61
2017-01-04T00:46:12.779Z,92.42
2017-01-04T00:46:53.252Z,92.52
2017-01-04T00:47:33.712Z,92.61
2017-01-04T00:48:14.215Z,91.95
2017-01-04T00:48:54.698Z,92.42
2017-01-04T00:49:35.152Z,91.76
2017-01-04T00:50:15.628Z,91.66
2017-01-04T00:50:56.119Z,91.28
2017-01-04T00:51:36.612Z,91.47
2017-01-04T00:52:17.096Z,91.85
2017-01-04T00:52:57.584Z,92.14
2017-01-04T00:53:38.081Z,91.76
2017-01-04T00:54:18.558Z,91.95
2017-01-04T00:54:59.053Z,92.04
2017-01-04T00:55:39.540Z,92.04
2017-01-04T00:56:20.043Z,92.14
2017-01-04T00:57:00.520Z,92.52
2017-01-04T00:57:41.000Z,92.9
2017-01-04T00:58:21.504Z,92.33
2017-01-04T00:59:01.999Z,92.33
2017-01-04T00:59:42.488Z,92.52
2017-01-04T01:00:22.958Z,92.71
2017-01-04T01:01:03.460Z,92.61
2017-01-04T01:01:43.931Z,92.52
2017-01-04T01:02:24.393Z,92.33
2017-01-04T01:03:04.868Z,92.52
2017-01-04T01:03:45.369Z,92.52
2017-01-04T01:04:25.897Z,92.61
2017-01-04T01:05:06.364Z,92.33
2017-01-04T01:05:46.926Z,92.14
2017-01-04T01:06:27.410Z,91.47
2017-01-04T01:07:07.898Z,91.57
2017-01-04T01:07:48.396Z,91.19
2017-01-04T01:08:28.846Z,91.95
2017-01-04T01:09:09.347Z,92.04
2017-01-04T01:09:49.853Z,92.52
2017-01-04T01:10:30.337Z,92.42
2017-01-04T01:11:10.833Z,92.61
2017-01-04T01:11:51.304Z,92.71
2017-01-04T01:12:31.799Z,92.61
2017-01-04T01:13:12.274Z,92.52
2017-01-04T01:13:52.751Z,91.99
2017-01-04T01:14:33.243Z,91.19
2017-01-04T01:15:13.726Z,91
2017-01-04T01:15:54.215Z,90.72
2017-01-04T01:16:34.711Z,90.34
2017-01-04T01:17:15.194Z,91
2017-01-04T01:17:55.709Z,90.62
2017-01-04T01:18:36.198Z,90.24
2017-01-04T01:19:16.672Z,89.96
2017-01-04T01:19:57.152Z,90.48
2017-01-04T01:20:37.645Z,90.62
2017-01-04T01:21:18.186Z,90.67
2017-01-04T01:21:58.697Z,90.48
2017-01-04T01:22:39.246Z,90.24
2017-01-04T01:23:19.733Z,90.72
2017-01-04T01:24:00.238Z,90.91
2017-01-04T01:24:40.720Z,90.67
2017-01-04T01:25:21.207Z,90.72
2017-01-04T01:26:01.690Z,91.38
2017-01-04T01:26:42.170Z,91.19
2017-01-04T01:27:22.649Z,91.57
2017-01-04T01:28:03.176Z,91.28
2017-01-04T01:28:43.644Z,91.28
2017-01-04T01:29:24.152Z,91.52
2017-01-04T01:30:04.638Z,91.42
2017-01-04T01:30:45.132Z,91.42
2017-01-04T01:31:25.584Z,91.14
2017-01-04T01:32:06.082Z,90.76
2017-01-04T01:32:46.599Z,90.57
2017-01-04T01:33:27.084Z,91.61
2017-01-04T01:34:07.576Z,90.1
2017-01-04T01:34:48.040Z,89.72
2017-01-04T01:35:28.544Z,88.87
2017-01-04T01:36:09.040Z,88.87
2017-01-04T01:36:49.503Z,89.15
2017-01-04T01:37:30.023Z,89.25
2017-01-04T01:38:10.495Z,88.68
2017-01-04T01:38:50.961Z,88.01
2017-01-04T01:39:31.472Z,87.82
2017-01-04T01:40:11.931Z,87.92
2017-01-04T01:40:52.412Z,88.01
2017-01-04T01:41:32.905Z,87.73
2017-01-04T01:42:13.396Z,86.97
2017-01-04T01:42:53.921Z,87.06
2017-01-04T01:43:34.371Z,87.06
2017-01-04T01:44:14.852Z,87.06
2017-01-04T01:44:55.352Z,86.78
2017-01-04T01:45:35.837Z,86.68
2017-01-04T01:46:16.302Z,87.06
2017-01-04T01:46:56.800Z,87.06
2017-01-04T01:47:37.259Z,87.06
2017-01-04T01:48:17.738Z,87.16
2017-01-04T01:48:58.231Z,87.35
2017-01-04T01:49:38.692Z,86.87
2017-01-04T01:50:19.202Z,86.78
2017-01-04T01:50:59.676Z,86.25
2017-01-04T01:51:40.140Z,86.63
2017-01-04T01:52:20.630Z,86.16
2017-01-04T01:53:01.118Z,86.68
2017-01-04T01:53:41.603Z,87.01
2017-01-04T01:54:22.086Z,87.39
2017-01-04T01:55:02.594Z,87.3
2017-01-04T01:55:43.154Z,87.39
2017-01-04T01:56:23.630Z,86.54
2017-01-04T01:57:04.121Z,86.54
2017-01-04T01:57:44.609Z,86.54
2017-01-04T01:58:25.071Z,86.16
2017-01-04T01:59:05.592Z,86.63
2017-01-04T01:59:46.052Z,86.07
2017-01-04T02:00:26.552Z,85.02
2017-01-04T02:01:07.044Z,85.97
2017-01-04T02:01:47.530Z,85.68
2017-01-04T02:02:28.047Z,84.92
2017-01-04T02:03:08.538Z,85.21
2017-01-04T02:03:49.004Z,85.87
2017-01-04T02:04:29.496Z,85.78
2017-01-04T02:05:09.996Z,86.54
2017-01-04T02:05:50.464Z,87.11
2017-01-04T02:06:30.952Z,86.72
2017-01-04T02:07:11.429Z,87.01
2017-01-04T02:07:51.920Z,86.63
2017-01-04T02:08:32.398Z,86.35
2017-01-04T02:09:12.907Z,87.39
2017-01-04T02:09:53.376Z,87.11
2017-01-04T02:10:33.851Z,87.2
2017-01-04T02:11:14.350Z,86.78
2017-01-04T02:11:54.859Z,86.82
2017-01-04T02:12:35.342Z,86.91
2017-01-04T02:13:15.848Z,87.77
2017-01-04T02:13:56.335Z,87.77
2017-01-04T02:14:36.824Z,87.87
2017-01-04T02:15:17.330Z,87.39
2017-01-04T02:15:57.792Z,87.58
2017-01-04T02:16:38.319Z,87.77
2017-01-04T02:17:18.814Z,88.06
2017-01-04T02:17:59.322Z,87.68
2017-01-04T02:18:39.802Z,88.53
2017-01-04T02:19:20.313Z,88.06
2017-01-04T02:20:00.768Z,88.06
2017-01-04T02:20:41.249Z,88.24
2017-01-04T02:21:21.733Z,87.58
2017-01-04T02:22:02.290Z,87.58
2017-01-04T02:22:42.765Z,87.77
2017-01-04T02:23:23.246Z,88.43
2017-01-04T02:24:03.759Z,88.24
2017-01-04T02:24:44.258Z,88.43
2017-01-04T02:25:24.726Z,89.48
2017-01-04T02:26:05.204Z,89.95
2017-01-04T02:26:45.698Z,90.24
2017-01-04T02:27:26.173Z,90.62
2017-01-04T02:28:06.675Z,91.24
2017-01-04T02:28:47.160Z,91.8
2017-01-04T02:29:29.595Z,92.57
2017-01-04T02:30:10.102Z,93.61
2017-01-04T02:30:50.569Z,92.85
2017-01-04T02:31:31.058Z,93.7
2017-01-04T02:32:11.518Z,94.46
2017-01-04T02:32:52.026Z,95.69
2017-01-04T02:33:32.496Z,97.02
2017-01-04T02:34:12.974Z,98.87
2017-01-04T02:34:53.491Z,98.87
2017-01-04T02:35:33.974Z,99.99
2017-01-04T02:36:14.443Z,99.91
2017-01-04T02:36:54.937Z,99.99
2017-01-04T02:37:35.426Z,99.99
2017-01-04T02:38:15.883Z,99.99
2017-01-04T02:38:56.362Z,99.99
2017-01-04T02:39:36.859Z,99.99
2017-01-04T02:40:17.338Z,99.99
2017-01-04T02:40:57.826Z,99.99
2017-01-04T02:41:38.378Z,99.99
2017-01-04T02:42:18.838Z,99.99
2017-01-04T02:42:59.340Z,99.99
2017-01-04T02:43:39.832Z,99.99
2017-01-04T02:44:20.283Z,99.77
2017-01-04T02:45:00.756Z,99.99
2017-01-04T02:45:41.244Z,99.91
2017-01-04T02:46:21.716Z,99.99
2017-01-04T02:47:02.179Z,99.99
2017-01-04T02:47:42.677Z,99.99
2017-01-04T02:48:23.168Z,99.99
2017-01-04T02:49:03.636Z,99.99
2017-01-04T02:49:44.133Z,99.96
2017-01-04T02:50:24.616Z,99.99
2017-01-04T02:51:05.098Z,99.99
2017-01-04T02:51:45.610Z,99.96
2017-01-04T02:52:26.092Z,99.99
2017-01-04T02:53:06.571Z,99.99
2017-01-04T02:53:47.042Z,99.99
2017-01-04T02:54:27.579Z,99.99
2017-01-04T02:55:08.045Z,99.99
2017-01-04T02:55:48.525Z,99.99
2017-01-04T02:56:29.001Z,99.99
2017-01-04T02:57:09.495Z,99.99
2017-01-04T02:57:49.955Z,99.99
2017-01-04T02:58:30.467Z,99.99
2017-01-04T02:59:10.937Z,99.82
2017-01-04T02:59:51.438Z,99.99
2017-01-04T03:00:34.425Z,99.82
2017-01-04T03:01:14.897Z,99.06
2017-01-04T03:01:55.403Z,98.96
2017-01-04T03:02:35.871Z,98.58
2017-01-04T03:03:16.367Z,98.49
2017-01-04T03:03:56.854Z,98.87
2017-01-04T03:04:37.352Z,98.58
2017-01-04T03:05:17.847Z,98.21
2017-01-04T03:05:58.327Z,98.39
2017-01-04T03:06:38.814Z,98.77
2017-01-04T03:07:19.305Z,98.11
2017-01-04T03:07:59.779Z,98.21
2017-01-04T03:08:40.260Z,98.39
2017-01-04T03:09:20.739Z,98.21
2017-01-04T03:10:01.196Z,98.39
2017-01-04T03:10:41.685Z,98.11
2017-01-04T03:11:22.174Z,98.3
2017-01-04T03:12:02.671Z,98.49
2017-01-04T03:12:43.136Z,98.68
2017-01-04T03:13:23.624Z,97.83
2017-01-04T03:14:04.099Z,97.83
2017-01-04T03:14:44.599Z,97.54
2017-01-04T03:15:25.101Z,97.35
2017-01-04T03:16:05.583Z,96.78
2017-01-04T03:16:46.075Z,96.78
2017-01-04T03:17:26.568Z,96.78
2017-01-04T03:18:07.076Z,96.5
2017-01-04T03:18:47.546Z,96.22
2017-01-04T03:19:28.028Z,95.36
2017-01-04T03:20:08.502Z,96.12
2017-01-04T03:20:49.007Z,95.45
2017-01-04T03:21:29.502Z,95.17
2017-01-04T03:22:09.994Z,95.26
2017-01-04T03:22:50.458Z,95.17
2017-01-04T03:23:30.954Z,96.22
2017-01-04T03:24:11.409Z,96.03
2017-01-04T03:24:51.892Z,95.93
2017-01-04T03:25:32.389Z,96.31
2017-01-04T03:26:12.875Z,96.5
2017-01-04T03:26:53.428Z,96.5
2017-01-04T03:27:33.921Z,96.78
2017-01-04T03:28:14.452Z,97.26
2017-01-04T03:28:54.946Z,97.45
2017-01-04T03:29:35.412Z,97.45
2017-01-04T03:30:15.904Z,97.54
2017-01-04T03:30:56.388Z,97.16
2017-01-04T03:31:36.892Z,97.45
2017-01-04T03:32:17.375Z,97.35
2017-01-04T03:32:57.870Z,97.07
2017-01-04T03:33:38.396Z,97.73
2017-01-04T03:34:18.877Z,97.35
2017-01-04T03:34:59.348Z,97.26
2017-01-04T03:35:39.849Z,97.73
2017-01-04T03:36:20.328Z,97.64
2017-01-04T03:37:00.806Z,97.73
2017-01-04T03:37:41.292Z,97.64
2017-01-04T03:38:21.757Z,96.59
2017-01-04T03:39:02.232Z,96.12
2017-01-04T03:39:42.720Z,95.41
2017-01-04T03:40:23.216Z,95.55
2017-01-04T03:41:03.697Z,95.74
2017-01-04T03:41:44.174Z,95.55
2017-01-04T03:42:24.662Z,95.45
2017-01-04T03:43:05.151Z,95.26
2017-01-04T03:43:45.642Z,94.51
2017-01-04T03:44:26.143Z,94.79
2017-01-04T03:45:06.630Z,94.42
2017-01-04T03:45:47.103Z,94.51
2017-01-04T03:46:27.609Z,94.13
2017-01-04T03:47:08.090Z,94.04
2017-01-04T03:47:48.580Z,94.32
2017-01-04T03:48:29.059Z,94.51
2017-01-04T03:49:09.545Z,94.42
2017-01-04T03:49:50.022Z,94.32
2017-01-04T03:50:30.522Z,94.7
2017-01-04T03:51:11.023Z,94.51
2017-01-04T03:51:51.475Z,95.03
2017-01-04T03:52:31.993Z,94.89
2017-01-04T03:53:12.488Z,94.89
2017-01-04T03:53:52.957Z,95.93
2017-01-04T03:54:33.435Z,95.03
2017-01-04T03:55:13.917Z,95.45
2017-01-04T03:55:54.384Z,94.89
2017-01-04T03:56:34.871Z,95.07
2017-01-04T03:57:15.348Z,94.51
2017-01-04T03:57:55.828Z,94.98
2017-01-04T03:58:36.309Z,94.7
2017-01-04T03:59:16.784Z,95.03
2017-01-04T03:59:57.300Z,95.55
2017-01-04T04:00:37.771Z,95.65
2017-01-04T04:01:18.309Z,95.6
2017-01-04T04:01:58.724Z,95.6
2017-01-04T04:02:39.226Z,95.31
2017-01-04T04:03:19.716Z,94.56
2017-01-04T04:04:00.203Z,95.26
2017-01-04T04:04:40.689Z,95.03
2017-01-04T04:05:21.169Z,95.6
2017-01-04T04:06:01.673Z,95.69
2017-01-04T04:06:42.172Z,95.6
2017-01-04T04:07:22.652Z,95.79
2017-01-04T04:08:03.125Z,95.5
2017-01-04T04:08:43.605Z,94.27
2017-01-04T04:09:24.094Z,93.89
2017-01-04T04:10:04.570Z,93.99
2017-01-04T04:10:45.056Z,93.7
2017-01-04T04:11:25.517Z,93.41
2017-01-04T04:12:06.003Z,92.85
2017-01-04T04:12:46.486Z,91.8
2017-01-04T04:13:26.980Z,92.38
2017-01-04T04:14:07.466Z,91.8
2017-01-04T04:14:47.946Z,91.42
2017-01-04T04:15:28.437Z,92.18
2017-01-04T04:16:08.911Z,91.9
2017-01-04T04:16:49.393Z,91.99
2017-01-04T04:17:29.878Z,92.18
2017-01-04T04:18:10.384Z,91.61
2017-01-04T04:18:50.841Z,91.52
2017-01-04T04:19:31.334Z,91.33
2017-01-04T04:20:11.819Z,91.42
2017-01-04T04:20:52.295Z,91.42
2017-01-04T04:21:32.758Z,91.61
2017-01-04T04:22:13.275Z,91.05
2017-01-04T04:22:53.746Z,90.67
2017-01-04T04:23:34.246Z,90.48
2017-01-04T04:24:14.724Z,90.38
2017-01-04T04:24:55.211Z,91.33
2017-01-04T04:25:35.700Z,91.71
2017-01-04T04:26:16.185Z,91.61
2017-01-04T04:26:56.673Z,92.09
2017-01-04T04:27:37.180Z,92.47
2017-01-04T04:28:17.682Z,92.38
2017-01-04T04:28:58.192Z,92.76
2017-01-04T04:29:38.648Z,93.13
2017-01-04T04:30:19.151Z,93.23
2017-01-04T04:30:59.627Z,93.84
2017-01-04T04:31:40.093Z,93.37
2017-01-04T04:32:20.596Z,93.46
2017-01-04T04:33:01.064Z,93.27
2017-01-04T04:33:41.549Z,93.18
2017-01-04T04:34:22.030Z,93.37
2017-01-04T04:35:02.512Z,93.18
2017-01-04T04:35:42.999Z,93.27
2017-01-04T04:36:23.571Z,93.18
2017-01-04T04:37:04.039Z,93.27
2017-01-04T04:37:44.521Z,93.37
2017-01-04T04:38:25.008Z,93.75
2017-01-04T04:39:05.491Z,93.37
2017-01-04T04:39:45.958Z,93.18
2017-01-04T04:40:26.453Z,92.9
2017-01-04T04:41:06.935Z,92.57
2017-01-04T04:41:47.430Z,93.13
2017-01-04T04:42:27.946Z,92.76
2017-01-04T04:43:08.423Z,92.38
2017-01-04T04:43:48.900Z,92.66
2017-01-04T04:44:29.394Z,92.66
2017-01-04T04:45:09.860Z,92.18
2017-01-04T04:45:51.921Z,91.9
2017-01-04T04:46:32.429Z,92.47
2017-01-04T04:47:12.912Z,91.99
2017-01-04T04:47:53.382Z,91.33
2017-01-04T04:48:33.868Z,91.33
2017-01-04T04:49:14.343Z,90.67
2017-01-04T04:49:54.905Z,91.33
2017-01-04T04:50:35.383Z,91.42
2017-01-04T04:51:15.876Z,91.33
2017-01-04T04:51:56.359Z,91.61
2017-01-04T04:52:36.838Z,91.71
2017-01-04T04:53:17.327Z,92.18
2017-01-04T04:53:57.782Z,92.38
2017-01-04T04:54:38.270Z,92.57
2017-01-04T04:55:18.771Z,92.66
2017-01-04T04:55:59.274Z,92.38
2017-01-04T04:56:39.712Z,92.76
2017-01-04T04:57:20.201Z,93.61
2017-01-04T04:58:00.693Z,93.61
2017-01-04T04:58:41.179Z,93.8
2017-01-04T04:59:21.661Z,93.89
2017-01-04T05:00:02.150Z,93.51
2017-01-04T05:00:42.628Z,93.51
2017-01-04T05:01:23.190Z,93.04
2017-01-04T05:02:03.677Z,91.33
2017-01-04T05:02:44.131Z,89.91
2017-01-04T05:03:24.655Z,89.72
2017-01-04T05:04:05.116Z,88.87
2017-01-04T05:04:45.629Z,88.01
2017-01-04T05:05:26.120Z,87.82
2017-01-04T05:06:06.609Z,88.39
2017-01-04T05:06:47.080Z,88.2
2017-01-04T05:07:27.574Z,88.39
2017-01-04T05:08:08.074Z,87.82
2017-01-04T05:08:48.580Z,88.48
2017-01-04T05:09:29.055Z,88.2
2017-01-04T05:10:09.525Z,89.15
2017-01-04T05:10:50.022Z,88.39
2017-01-04T05:11:30.496Z,88.1
2017-01-04T05:12:10.986Z,88.87
2017-01-04T05:12:51.516Z,88.96
2017-01-04T05:13:31.992Z,88.96
2017-01-04T05:14:12.471Z,89.43
2017-01-04T05:14:52.955Z,89.15
2017-01-04T05:15:33.533Z,89.62
2017-01-04T05:16:14.032Z,89.62
2017-01-04T05:16:54.491Z,89.62
2017-01-04T05:17:34.979Z,89.53
2017-01-04T05:18:15.497Z,89.53
2017-01-04T05:18:56.008Z,89.81
2017-01-04T05:19:36.524Z,89.53
2017-01-04T05:20:17.039Z,89.72
2017-01-04T05:20:57.539Z,89.62
2017-01-04T05:21:38.048Z,89.53
2017-01-04T05:22:18.566Z,90.67
2017-01-04T05:22:59.106Z,90.19
2017-01-04T05:23:39.587Z,90.29
2017-01-04T05:24:20.071Z,90.1
2017-01-04T05:25:00.539Z,90.29
2017-01-04T05:25:41.116Z,90.29
2017-01-04T05:26:21.605Z,90.29
2017-01-04T05:27:02.070Z,90.38
2017-01-04T05:27:42.578Z,90.29
2017-01-04T05:28:23.113Z,90.48
2017-01-04T05:29:10.111Z,90.67
2017-01-04T05:29:50.624Z,90.38
2017-01-04T05:30:31.127Z,90.76
2017-01-04T05:31:11.628Z,90.29
2017-01-04T05:31:52.659Z,90.38
2017-01-04T05:32:33.151Z,90.19
2017-01-04T05:33:13.660Z,90.38
2017-01-04T05:33:54.129Z,89.91
2017-01-04T05:34:34.609Z,90.19
2017-01-04T05:35:15.096Z,90.1
2017-01-04T05:35:55.556Z,89.91
2017-01-04T05:36:36.046Z,89.34
2017-01-04T05:37:16.543Z,89.53
2017-01-04T05:37:57.064Z,90.19
2017-01-04T05:38:37.565Z,90.1
2017-01-04T05:39:18.053Z,89.91
2017-01-04T05:39:58.710Z,89.91
2017-01-04T05:40:39.169Z,90.48
2017-01-04T05:41:19.654Z,90.67
2017-01-04T05:42:00.273Z,90.19
2017-01-04T05:42:40.756Z,90.38
2017-01-04T05:43:21.246Z,90.1
2017-01-04T05:44:01.729Z,90.38
2017-01-04T05:44:42.254Z,90.57
2017-01-04T05:45:22.724Z,90.33
2017-01-04T05:46:03.385Z,90.38
2017-01-04T05:46:43.917Z,90.76
2017-01-04T05:47:24.416Z,90.67
2017-01-04T05:48:04.926Z,90.67
2017-01-04T05:48:45.405Z,91.24
2017-01-04T05:49:25.900Z,91.05
2017-01-04T05:50:06.373Z,90.38
2017-01-04T05:50:46.843Z,89.91
2017-01-04T05:51:27.336Z,90.57
2017-01-04T05:52:07.813Z,91.14
2017-01-04T05:52:48.332Z,91.33
2017-01-04T05:53:28.853Z,91.33
2017-01-04T05:54:09.335Z,90.95
2017-01-04T05:54:49.803Z,90
2017-01-04T05:55:30.305Z,90.48
2017-01-04T05:56:10.808Z,90.1
2017-01-04T05:56:51.296Z,90.76
2017-01-04T05:57:31.904Z,90.38
2017-01-04T05:58:12.406Z,90.57
2017-01-04T05:58:52.886Z,90.76
2017-01-04T05:59:33.405Z,90.76
2017-01-04T06:00:13.860Z,90.57
2017-01-04T06:00:54.366Z,91.61
2017-01-04T06:01:34.830Z,91.33
2017-01-04T06:02:15.316Z,91.33
2017-01-04T06:02:55.836Z,91.14
2017-01-04T06:03:36.341Z,91.33
2017-01-04T06:04:16.835Z,91.61
2017-01-04T06:04:57.321Z,91.61
2017-01-04T06:05:37.799Z,91.52
2017-01-04T06:06:18.290Z,91.71
2017-01-04T06:06:58.782Z,92.18
2017-01-04T06:07:39.267Z,92.66
2017-01-04T06:08:19.767Z,92.18
2017-01-04T06:09:00.272Z,92.85
2017-01-04T06:09:40.743Z,92.47
2017-01-04T06:10:21.248Z,93.04
2017-01-04T06:11:01.765Z,92.85
2017-01-04T06:11:42.278Z,92.85
2017-01-04T06:12:22.775Z,93.61
2017-01-04T06:13:03.264Z,93.32
2017-01-04T06:13:43.741Z,93.32
2017-01-04T06:14:24.302Z,93.65
2017-01-04T06:15:04.851Z,93.7
2017-01-04T06:15:45.367Z,92.99
2017-01-04T06:16:25.882Z,92.71
2017-01-04T06:17:06.392Z,92.52
2017-01-04T06:17:46.905Z,92.57
2017-01-04T06:18:27.392Z,91.9
2017-01-04T06:19:07.878Z,91.14
2017-01-04T06:19:48.362Z,91.42
2017-01-04T06:20:28.877Z,91.33
2017-01-04T06:21:09.367Z,91.52
2017-01-04T06:21:49.841Z,91.05
2017-01-04T06:22:30.326Z,90.48
2017-01-04T06:23:10.816Z,90.76
2017-01-04T06:23:51.280Z,90.29
2017-01-04T06:24:31.789Z,90.29
2017-01-04T06:25:12.282Z,90.67
2017-01-04T06:25:52.788Z,90.67
2017-01-04T06:26:33.268Z,90.29
2017-01-04T06:27:13.758Z,90.1
2017-01-04T06:27:54.254Z,90.19
2017-01-04T06:28:34.726Z,90.29
2017-01-04T06:29:15.214Z,89.53
2017-01-04T06:29:55.697Z,89.53
2017-01-04T06:30:36.188Z,88.96
2017-01-04T06:31:16.666Z,89.72
2017-01-04T06:31:57.158Z,89.62
2017-01-04T06:32:37.654Z,89.62
2017-01-04T06:33:18.143Z,89.43
2017-01-04T06:33:58.615Z,89.91
2017-01-04T06:34:39.113Z,89.62
2017-01-04T06:35:19.619Z,89.53
2017-01-04T06:36:00.109Z,89.43
2017-01-04T06:36:40.628Z,89.53
2017-01-04T06:37:21.223Z,89.43
2017-01-04T06:38:01.739Z,89.15
2017-01-04T06:38:42.216Z,89.53
2017-01-04T06:39:22.726Z,89.06
2017-01-04T06:40:03.191Z,89.06
2017-01-04T06:40:43.724Z,89.43
2017-01-04T06:41:24.229Z,89.43
2017-01-04T06:42:04.705Z,89.62
2017-01-04T06:42:45.199Z,89.43
2017-01-04T06:43:25.686Z,89.06
2017-01-04T06:44:06.179Z,88.2
2017-01-04T06:44:46.684Z,88.87
2017-01-04T06:45:27.145Z,88.39
2017-01-04T06:46:07.625Z,89.06
2017-01-04T06:46:48.120Z,88.29
2017-01-04T06:47:28.616Z,88.58
2017-01-04T06:48:09.118Z,88.48
2017-01-04T06:48:49.605Z,89.06
2017-01-04T06:49:30.870Z,89.62
2017-01-04T06:50:11.354Z,89.91
2017-01-04T06:50:51.845Z,89.25
2017-01-04T06:51:32.353Z,89.15
2017-01-04T06:52:12.918Z,88.87
2017-01-04T06:52:53.867Z,88.39
2017-01-04T06:53:34.431Z,88.01
2017-01-04T06:54:15.039Z,87.35
2017-01-04T06:54:55.499Z,87.06
2017-01-04T06:55:35.987Z,87.54
2017-01-04T06:56:16.513Z,87.54
2017-01-04T06:56:56.994Z,86.87
2017-01-04T06:57:37.482Z,87.16
2017-01-04T06:58:17.975Z,87.73
2017-01-04T06:58:58.534Z,87.45
2017-01-04T06:59:39.081Z,87.63
2017-01-04T07:00:19.640Z,87.92
2017-01-04T07:01:00.141Z,88.39
2017-01-04T07:01:40.646Z,88.48
2017-01-04T07:02:21.165Z,88.39
2017-01-04T07:03:01.640Z,88.39
2017-01-04T07:03:42.167Z,88.1
2017-01-04T07:04:22.638Z,88.29
2017-01-04T07:05:03.128Z,88.01
2017-01-04T07:05:43.608Z,89.06
2017-01-04T07:06:24.080Z,89.25
2017-01-04T07:07:04.568Z,89.53
2017-01-04T07:07:45.071Z,89.91
2017-01-04T07:08:25.552Z,90
2017-01-04T07:09:06.064Z,90.67
2017-01-04T07:09:46.530Z,91.33
2017-01-04T07:10:27.042Z,91.8
2017-01-04T07:11:07.513Z,91.9
2017-01-04T07:11:47.999Z,91.85
2017-01-04T07:12:28.570Z,92.04
2017-01-04T07:13:09.092Z,92.71
2017-01-04T07:13:49.606Z,92.99
2017-01-04T07:14:30.095Z,92.8
2017-01-04T07:15:10.571Z,92.8
2017-01-04T07:15:51.088Z,93.27
2017-01-04T07:16:31.566Z,93.37
2017-01-04T07:17:12.061Z,93.46
2017-01-04T07:17:52.540Z,93.27
2017-01-04T07:19:51.645Z,93.75
2017-01-04T07:20:32.132Z,93.75
2017-01-04T07:21:12.645Z,93.56
2017-01-04T07:21:53.142Z,93.94
2017-01-04T07:22:33.719Z,93.84
2017-01-04T07:23:14.208Z,93.27
2017-01-04T07:23:54.692Z,93.46
2017-01-04T07:24:35.290Z,92.9
2017-01-04T07:25:15.801Z,93.08
2017-01-04T07:25:56.290Z,92.52
2017-01-04T07:26:36.757Z,92.66
2017-01-04T07:27:17.247Z,91.99
2017-01-04T07:27:57.728Z,91.61
2017-01-04T07:28:38.233Z,91.52
2017-01-04T07:29:18.731Z,91.61
2017-01-04T07:29:59.189Z,91.8
2017-01-04T07:30:39.804Z,91.99
2017-01-04T07:31:20.266Z,91.61
2017-01-04T07:32:00.762Z,91.33
2017-01-04T07:32:41.228Z,91.33
2017-01-04T07:33:21.710Z,91.33
2017-01-04T07:34:02.181Z,91.14
2017-01-04T07:34:42.700Z,91.33
2017-01-04T07:35:23.201Z,91.52
2017-01-04T07:36:03.680Z,90.86
2017-01-04T07:36:44.196Z,91.24
2017-01-04T07:37:24.739Z,91.33
2017-01-04T07:38:05.205Z,91.71
2017-01-04T07:38:45.709Z,91.33
2017-01-04T07:39:26.194Z,91.61
2017-01-04T07:40:06.666Z,91.71
2017-01-04T07:40:47.160Z,91.61
2017-01-04T07:41:27.637Z,90.38
2017-01-04T07:42:08.125Z,90.67
2017-01-04T07:42:48.727Z,90.57
2017-01-04T07:43:29.179Z,90.86
2017-01-04T07:44:09.649Z,90.38
2017-01-04T07:44:50.127Z,90.48
2017-01-04T07:45:30.608Z,90.38
2017-01-04T07:46:11.072Z,90.76
2017-01-04T07:46:51.548Z,90.67
2017-01-04T07:47:32.034Z,90.95
2017-01-04T07:48:12.554Z,91.33
2017-01-04T07:48:53.041Z,91.33
2017-01-04T07:49:33.545Z,91.42
2017-01-04T07:50:14.007Z,91.33
2017-01-04T07:50:54.478Z,91.61
2017-01-04T07:51:34.976Z,91.61
2017-01-04T07:52:15.672Z,91.33
2017-01-04T07:52:56.168Z,91.52
2017-01-04T07:53:36.654Z,91.52
2017-01-04T07:54:17.117Z,91.99
2017-01-04T07:54:57.635Z,91.9
2017-01-04T07:55:38.132Z,91.9
2017-01-04T07:56:18.658Z,92.76
2017-01-04T07:56:59.140Z,92.47
2017-01-04T07:57:39.633Z,92.47
2017-01-04T07:58:20.163Z,92.38
2017-01-04T07:59:00.656Z,92.66
2017-01-04T07:59:41.153Z,92.28
2017-01-04T08:00:21.651Z,91.99
2017-01-04T08:01:02.198Z,92.66
2017-01-04T08:01:42.682Z,94.7
2017-01-04T08:02:23.403Z,95.55
2017-01-04T08:03:04.627Z,97.4
2017-01-04T08:03:44.864Z,98.25
2017-01-04T08:04:25.373Z,98.25
2017-01-04T08:05:06.136Z,99.01
2017-01-04T08:05:47.491Z,99.96
2017-01-04T08:06:28.057Z,99.86
2017-01-04T08:07:08.688Z,99.99
2017-01-04T08:07:49.179Z,99.99
2017-01-04T08:08:29.640Z,99.99
2017-01-04T08:09:10.133Z,99.99
2017-01-04T08:09:51.032Z,99.99
2017-01-04T08:10:31.576Z,99.99
2017-01-04T08:11:12.223Z,99.99
2017-01-04T08:11:52.697Z,99.99
2017-01-04T08:12:33.171Z,99.99
2017-01-04T08:13:13.720Z,99.99
2017-01-04T08:13:54.243Z,99.99
2017-01-04T08:14:35.552Z,99.99
2017-01-04T08:15:16.255Z,99.99
2017-01-04T08:15:57.103Z,99.99
2017-01-04T08:16:37.590Z,99.99
2017-01-04T08:17:18.076Z,99.99
2017-01-04T08:17:58.602Z,99.99
2017-01-04T08:18:39.105Z,99.99
2017-01-04T08:19:19.670Z,99.99
2017-01-04T08:20:00.156Z,99.99
2017-01-04T08:20:40.771Z,99.99
2017-01-04T08:21:21.443Z,99.99
2017-01-04T08:22:01.921Z,99.99
2017-01-04T08:22:42.448Z,99.99
2017-01-04T08:23:22.941Z,99.99
2017-01-04T08:24:03.456Z,99.99
2017-01-04T08:24:43.971Z,99.99
2017-01-04T08:25:24.484Z,99.99
2017-01-04T08:26:04.977Z,99.99
2017-01-04T08:26:46.350Z,99.99
2017-01-04T08:27:26.840Z,99.99
2017-01-04T08:28:07.365Z,99.99
2017-01-04T08:28:47.853Z,99.99
2017-01-04T08:29:28.356Z,99.99
2017-01-04T08:30:08.865Z,99.99
2017-01-04T08:30:49.368Z,99.99
2017-01-04T08:31:29.886Z,99.99
2017-01-04T08:32:10.361Z,99.99
2017-01-04T08:32:50.900Z,99.99
2017-01-04T08:33:31.428Z,99.99
2017-01-04T08:34:11.924Z,99.99
2017-01-04T08:34:52.419Z,99.99
2017-01-04T08:35:32.910Z,99.99
2017-01-04T08:36:13.395Z,99.99
2017-01-04T08:36:53.894Z,99.99
2017-01-04T08:37:34.385Z,99.99
2017-01-04T08:38:14.915Z,99.99
2017-01-04T08:38:55.395Z,99.99
2017-01-04T08:39:35.852Z,99.99
2017-01-04T08:40:16.342Z,99.99
2017-01-04T08:40:56.865Z,99.99
2017-01-04T08:41:37.368Z,99.99
2017-01-04T08:42:18.447Z,99.99
2017-01-04T08:42:58.951Z,99.99
2017-01-04T08:43:39.482Z,99.99
2017-01-04T08:44:19.960Z,99.99